createdAt,value
2022-11-29T00:01:32.386Z,19.53
2022-11-29T00:04:01.235Z,25.70
2022-11-29T00:06:30.956Z,20.20
2022-11-29T00:09:00.519Z,19.63
2022-11-29T00:11:47.594Z,19.37
2022-11-29T00:14:17.270Z,18.43
2022-11-29T00:16:47.220Z,18.37
2022-11-29T00:19:15.627Z,20.33
2022-11-29T00:21:44.229Z,18.63
2022-11-29T00:24:12.645Z,22.97
2022-11-29T00:26:41.131Z,21.10
2022-11-29T00:29:09.566Z,22.20
2022-11-29T00:31:38.006Z,29.10
2022-11-29T00:34:07.958Z,18.23
2022-11-29T00:36:36.727Z,19.63
2022-11-29T00:39:05.891Z,24.33
2022-11-29T00:41:34.620Z,19.40
2022-11-29T00:44:05.829Z,24.73
2022-11-29T00:46:34.246Z,19.37
2022-11-29T00:49:03.662Z,19.63
2022-11-29T00:51:33.513Z,24.13
2022-11-29T00:54:02.112Z,22.13
2022-11-29T00:56:30.521Z,20.40
2022-11-29T00:58:58.981Z,31.43
2022-11-29T01:01:27.451Z,21.30
2022-11-29T01:03:55.911Z,25.43
2022-11-29T01:06:24.322Z,28.53
2022-11-29T01:08:54.165Z,22.97
2022-11-29T01:11:23.542Z,32.63
2022-11-29T01:13:52.716Z,30.80
2022-11-29T01:16:21.576Z,28.60
2022-11-29T01:18:50.107Z,27.93
2022-11-29T01:21:19.521Z,31.13
2022-11-29T01:23:48.397Z,36.87
2022-11-29T01:26:19.673Z,25.97
2022-11-29T01:28:49.615Z,34.87
2022-11-29T01:31:19.367Z,32.10
2022-11-29T01:33:47.864Z,28.07
2022-11-29T01:36:19.392Z,23.17
2022-11-29T01:38:48.053Z,22.33
2022-11-29T01:41:18.770Z,21.00
2022-11-29T01:43:57.817Z,19.50
2022-11-29T01:46:26.680Z,23.17
2022-11-29T01:48:56.756Z,26.43
2022-11-29T01:51:25.420Z,33.53
2022-11-29T01:53:53.958Z,24.20
2022-11-29T01:56:24.230Z,28.40
2022-11-29T01:58:53.053Z,27.37
2022-11-29T02:01:21.593Z,33.07
2022-11-29T02:03:50.140Z,36.00
2022-11-29T02:06:18.596Z,40.87
2022-11-29T02:08:47.019Z,40.80
2022-11-29T02:11:33.041Z,37.60
2022-11-29T02:14:05.921Z,40.37
2022-11-29T02:16:38.686Z,50.07
2022-11-29T02:19:16.222Z,50.57
2022-11-29T02:21:48.283Z,45.20
2022-11-29T02:24:40.854Z,33.37
2022-11-29T02:27:18.931Z,28.53
2022-11-29T02:30:09.225Z,25.67
2022-11-29T02:33:07.890Z,30.80
2022-11-29T02:35:46.570Z,29.43
2022-11-29T02:38:25.438Z,24.13
2022-11-29T02:41:02.408Z,22.47
2022-11-29T02:43:41.676Z,18.97
2022-11-29T02:46:16.254Z,36.77
2022-11-29T02:48:52.886Z,24.50
2022-11-29T02:51:25.906Z,22.97
2022-11-29T02:53:58.957Z,30.73
2022-11-29T02:56:31.147Z,25.20
2022-11-29T02:59:03.574Z,22.53
2022-11-29T03:01:35.330Z,26.23
2022-11-29T03:04:08.612Z,27.73
2022-11-29T03:06:41.174Z,26.03
2022-11-29T03:09:11.360Z,21.17
2022-11-29T03:11:43.005Z,25.67
2022-11-29T03:14:16.362Z,19.37
2022-11-29T03:16:47.887Z,30.73
2022-11-29T03:19:31.305Z,19.10
2022-11-29T03:22:08.178Z,20.00
2022-11-29T03:24:39.063Z,27.97
2022-11-29T03:27:11.208Z,26.47
2022-11-29T03:29:42.260Z,24.30
2022-11-29T03:32:14.308Z,37.80
2022-11-29T03:34:54.245Z,26.50
2022-11-29T03:37:31.012Z,29.60
2022-11-29T03:40:03.055Z,26.67
2022-11-29T03:42:34.827Z,30.07
2022-11-29T03:45:07.769Z,25.20
2022-11-29T03:47:37.745Z,28.77
2022-11-29T03:50:07.560Z,32.37
2022-11-29T03:52:40.139Z,25.00
2022-11-29T03:55:16.918Z,21.33
2022-11-29T03:57:49.323Z,22.10
2022-11-29T04:00:18.060Z,23.13
2022-11-29T04:03:00.876Z,22.20
2022-11-29T04:05:46.728Z,26.80
2022-11-29T04:08:33.067Z,32.63
2022-11-29T04:11:14.248Z,34.03
2022-11-29T04:14:06.397Z,24.50
2022-11-29T04:17:04.343Z,21.33
2022-11-29T04:19:40.212Z,20.70
2022-11-29T04:22:26.617Z,20.00
2022-11-29T04:25:12.946Z,17.37
2022-11-29T04:27:59.650Z,18.07
2022-11-29T04:30:29.233Z,24.43
2022-11-29T04:33:18.613Z,15.13
2022-11-29T04:35:57.682Z,32.33
2022-11-29T04:38:42.999Z,33.07
2022-11-29T04:41:29.874Z,24.93
2022-11-29T04:44:05.660Z,36.10
2022-11-29T04:46:39.770Z,35.37
2022-11-29T04:49:17.161Z,29.67
2022-11-29T04:51:53.578Z,35.77
2022-11-29T04:54:26.631Z,35.83
2022-11-29T04:56:56.570Z,33.43
2022-11-29T04:59:28.235Z,29.57
2022-11-29T05:02:02.632Z,33.07
2022-11-29T05:04:33.726Z,21.43
2022-11-29T05:07:04.949Z,25.83
2022-11-29T05:09:38.917Z,32.73
2022-11-29T05:12:10.892Z,22.60
2022-11-29T05:14:52.690Z,18.60
2022-11-29T05:17:27.134Z,27.17
2022-11-29T05:20:03.292Z,33.00
2022-11-29T05:22:35.329Z,36.60
2022-11-29T05:25:13.944Z,20.57
2022-11-29T05:27:46.347Z,27.77
2022-11-29T05:30:19.073Z,13.93
2022-11-29T05:32:54.231Z,28.23
2022-11-29T05:35:37.446Z,32.43
2022-11-29T05:38:12.936Z,25.07
2022-11-29T05:40:44.855Z,17.43
2022-11-29T05:43:24.456Z,18.57
2022-11-29T05:45:57.542Z,25.77
2022-11-29T05:48:28.142Z,21.17
2022-11-29T05:51:07.277Z,18.73
2022-11-29T05:53:38.915Z,23.50
2022-11-29T05:56:10.927Z,17.93
2022-11-29T05:58:45.274Z,15.07
2022-11-29T06:01:20.511Z,19.60
2022-11-29T06:03:55.255Z,23.07
2022-11-29T06:06:27.911Z,21.57
2022-11-29T06:08:59.122Z,20.47
2022-11-29T06:11:32.796Z,19.73
2022-11-29T06:14:05.653Z,16.80
2022-11-29T06:16:58.402Z,22.40
2022-11-29T06:19:37.431Z,21.30
2022-11-29T06:22:11.793Z,21.97
2022-11-29T06:24:47.499Z,18.73
2022-11-29T06:27:26.359Z,23.03
2022-11-29T06:29:59.446Z,19.60
2022-11-29T06:32:32.889Z,20.07
2022-11-29T06:35:05.332Z,24.10
2022-11-29T06:37:37.658Z,25.03
2022-11-29T06:40:06.901Z,24.40
2022-11-29T06:42:35.450Z,26.50
2022-11-29T06:45:04.233Z,48.27
2022-11-29T06:47:34.642Z,30.83
2022-11-29T06:50:06.658Z,35.17
2022-11-29T06:52:39.093Z,45.00
2022-11-29T06:55:12.454Z,49.27
2022-11-29T06:57:46.725Z,42.83
2022-11-29T07:00:18.026Z,37.13
2022-11-29T07:02:53.346Z,39.93
2022-11-29T07:05:25.724Z,44.97
2022-11-29T07:07:55.784Z,40.50
2022-11-29T07:10:25.127Z,41.93
2022-11-29T07:12:53.772Z,35.97
2022-11-29T07:15:23.254Z,48.40
2022-11-29T07:18:09.187Z,37.83
2022-11-29T07:20:43.708Z,38.50
2022-11-29T07:23:15.437Z,40.63
2022-11-29T07:25:48.269Z,46.73
2022-11-29T07:28:23.536Z,38.07
2022-11-29T07:30:54.063Z,53.23
2022-11-29T07:33:27.601Z,49.33
2022-11-29T07:36:01.553Z,35.47
2022-11-29T07:38:33.651Z,36.17
2022-11-29T07:41:07.553Z,61.57
2022-11-29T07:43:42.623Z,45.60
2022-11-29T07:46:11.292Z,44.93
2022-11-29T07:48:39.733Z,40.00
2022-11-29T07:51:09.639Z,40.47
2022-11-29T07:53:41.890Z,39.90
2022-11-29T07:56:10.571Z,42.33
2022-11-29T07:58:40.951Z,43.87
2022-11-29T08:01:09.458Z,37.23
2022-11-29T08:03:38.287Z,40.47
2022-11-29T08:06:06.710Z,38.10
2022-11-29T08:08:42.255Z,37.57
2022-11-29T08:11:12.387Z,55.27
2022-11-29T08:13:40.838Z,46.57
2022-11-29T08:16:09.416Z,38.93
2022-11-29T08:18:37.979Z,58.33
2022-11-29T08:21:07.782Z,63.70
2022-11-29T08:23:37.644Z,62.23
2022-11-29T08:26:06.063Z,57.42
2022-11-29T08:28:34.615Z,46.53
2022-11-29T08:31:03.421Z,63.30
2022-11-29T08:33:32.204Z,46.10
2022-11-29T08:36:05.824Z,63.87
2022-11-29T08:38:34.309Z,54.60
2022-11-29T08:41:04.701Z,62.50
2022-11-29T08:43:33.173Z,50.73
2022-11-29T08:46:01.755Z,50.10
2022-11-29T08:48:30.326Z,55.20
2022-11-29T08:50:58.970Z,61.67
2022-11-29T08:53:41.944Z,39.57
2022-11-29T08:56:53.346Z,44.37
2022-11-29T08:59:01.023Z,39.80
2022-11-29T09:01:31.177Z,48.57
2022-11-29T09:04:03.596Z,65.53
2022-11-29T09:06:33.204Z,65.90
2022-11-29T09:09:02.302Z,38.67
2022-11-29T09:11:32.612Z,43.50
2022-11-29T09:14:01.853Z,54.20
2022-11-29T09:16:32.829Z,47.77
2022-11-29T09:19:01.584Z,56.30
2022-11-29T09:21:31.650Z,45.43
2022-11-29T09:24:05.556Z,38.30
2022-11-29T09:26:37.098Z,51.77
2022-11-29T09:29:06.532Z,40.23
2022-11-29T09:31:36.025Z,40.37
2022-11-29T09:34:04.713Z,46.33
2022-11-29T09:36:33.281Z,45.10
2022-11-29T09:39:03.980Z,51.73
2022-11-29T09:41:50.625Z,48.43
2022-11-29T09:44:21.428Z,37.87
2022-11-29T09:46:58.745Z,41.10
2022-11-29T09:49:44.337Z,36.03
2022-11-29T09:52:18.248Z,48.50
2022-11-29T09:54:51.668Z,46.17
2022-11-29T09:57:23.961Z,45.60
2022-11-29T09:59:54.347Z,36.63
2022-11-29T10:02:25.200Z,37.03
2022-11-29T10:04:55.441Z,42.07
2022-11-29T10:07:26.506Z,42.40
2022-11-29T10:09:57.969Z,30.90
2022-11-29T10:12:32.374Z,34.17
2022-11-29T10:15:04.302Z,37.40
2022-11-29T10:17:38.873Z,40.77
2022-11-29T10:20:11.887Z,37.93
2022-11-29T10:22:44.318Z,33.53
2022-11-29T10:25:19.666Z,30.27
2022-11-29T10:27:49.453Z,24.70
2022-11-29T10:30:18.545Z,31.17
2022-11-29T10:32:48.157Z,30.43
2022-11-29T10:35:17.347Z,31.53
2022-11-29T10:38:07.864Z,25.03
2022-11-29T10:40:35.485Z,27.03
2022-11-29T10:43:06.070Z,24.70
2022-11-29T10:45:35.711Z,29.23
2022-11-29T10:48:05.972Z,24.60
2022-11-29T10:50:38.717Z,22.00
2022-11-29T10:53:08.374Z,30.97
2022-11-29T10:55:40.493Z,33.97
2022-11-29T10:58:11.250Z,37.47
2022-11-29T11:00:47.168Z,32.90
2022-11-29T11:03:19.326Z,29.67
2022-11-29T11:05:58.409Z,33.83
2022-11-29T11:08:27.378Z,28.47
2022-11-29T11:11:01.698Z,28.73
2022-11-29T11:13:32.742Z,27.70
2022-11-29T11:16:09.426Z,33.83
2022-11-29T11:18:38.292Z,29.30
2022-11-29T11:21:14.274Z,28.70
2022-11-29T11:23:45.168Z,28.23
2022-11-29T11:26:14.931Z,28.17
2022-11-29T11:28:50.116Z,31.03
2022-11-29T11:31:27.240Z,26.90
2022-11-29T11:33:55.772Z,30.93
2022-11-29T11:36:24.706Z,34.93
2022-11-29T11:38:54.536Z,31.13
2022-11-29T11:41:46.612Z,31.87
2022-11-29T11:44:46.714Z,32.97
2022-11-29T11:47:18.319Z,27.70
2022-11-29T11:49:51.564Z,25.83
2022-11-29T11:52:22.458Z,30.60
2022-11-29T11:54:52.806Z,34.97
2022-11-29T11:57:22.533Z,31.83
2022-11-29T11:59:51.293Z,32.20
2022-11-29T12:02:28.705Z,34.93
2022-11-29T12:04:59.028Z,22.17
2022-11-29T12:07:51.912Z,34.70
2022-11-29T12:10:21.278Z,34.17
2022-11-29T12:12:51.166Z,32.50
2022-11-29T12:15:21.299Z,26.03
2022-11-29T12:17:52.829Z,35.73
2022-11-29T12:20:24.315Z,27.83
2022-11-29T12:23:01.809Z,25.27
2022-11-29T12:25:32.635Z,23.23
2022-11-29T12:28:01.095Z,24.63
2022-11-29T12:30:29.744Z,20.20
2022-11-29T12:33:13.334Z,24.67
2022-11-29T12:35:47.420Z,22.87
2022-11-29T12:38:25.657Z,22.73
2022-11-29T12:41:00.032Z,20.93
2022-11-29T12:43:33.515Z,36.10
2022-11-29T12:46:07.309Z,23.43
2022-11-29T12:48:39.199Z,20.00
2022-11-29T12:51:14.002Z,18.93
2022-11-29T12:53:49.737Z,19.47
2022-11-29T12:56:24.001Z,17.07
2022-11-29T12:58:58.999Z,23.37
2022-11-29T13:01:32.393Z,21.23
2022-11-29T13:04:05.658Z,17.93
2022-11-29T13:06:41.394Z,15.73
2022-11-29T13:09:22.957Z,17.17
2022-11-29T13:11:55.216Z,19.40
2022-11-29T13:14:43.323Z,28.00
2022-11-29T13:17:19.843Z,27.90
2022-11-29T13:19:51.341Z,17.83
2022-11-29T13:22:26.830Z,14.57
2022-11-29T13:24:56.364Z,13.93
2022-11-29T13:27:26.735Z,11.63
2022-11-29T13:29:56.080Z,9.73
2022-11-29T13:32:31.889Z,11.20
2022-11-29T13:35:03.324Z,12.17
2022-11-29T13:37:36.147Z,15.43
2022-11-29T13:40:13.337Z,12.90
2022-11-29T13:42:46.276Z,10.97
2022-11-29T13:45:20.135Z,12.80
2022-11-29T13:47:51.717Z,12.57
2022-11-29T13:50:38.774Z,14.57
2022-11-29T13:53:14.202Z,16.97
2022-11-29T13:55:46.942Z,15.03
2022-11-29T13:58:32.318Z,16.80
2022-11-29T14:01:01.600Z,17.43
2022-11-29T14:03:31.564Z,15.43
2022-11-29T14:06:22.057Z,15.50
2022-11-29T14:09:24.748Z,18.07
2022-11-29T14:11:58.941Z,13.97
2022-11-29T14:14:29.661Z,14.97
2022-11-29T14:17:00.311Z,18.83
2022-11-29T14:19:33.780Z,20.57
2022-11-29T14:22:31.087Z,25.53
2022-11-29T14:25:08.153Z,23.77
2022-11-29T14:28:03.568Z,23.73
2022-11-29T14:30:46.433Z,20.83
2022-11-29T14:33:33.812Z,20.50
2022-11-29T14:36:15.080Z,19.60
2022-11-29T14:38:45.955Z,22.40
2022-11-29T14:41:22.078Z,18.70
2022-11-29T14:43:52.555Z,23.03
2022-11-29T14:46:29.479Z,21.03
2022-11-29T14:49:02.477Z,20.97
2022-11-29T14:51:32.178Z,18.90
2022-11-29T14:54:06.916Z,25.00
2022-11-29T14:56:45.656Z,20.80
2022-11-29T14:59:32.591Z,23.57
2022-11-29T15:02:03.834Z,25.63
2022-11-29T15:04:35.124Z,28.63
2022-11-29T15:07:04.317Z,21.27
2022-11-29T15:09:34.319Z,17.93
2022-11-29T15:12:04.858Z,20.57
2022-11-29T15:14:37.648Z,19.10
2022-11-29T15:17:13.573Z,17.70
2022-11-29T15:19:59.669Z,17.47
2022-11-29T15:22:29.183Z,18.47
2022-11-29T15:24:59.737Z,19.50
2022-11-29T15:27:28.475Z,15.93
2022-11-29T15:29:57.097Z,16.43
2022-11-29T15:32:27.996Z,17.13
2022-11-29T15:34:57.442Z,14.70
2022-11-29T15:37:42.712Z,20.10
2022-11-29T15:40:14.799Z,17.90
2022-11-29T15:42:44.367Z,22.37
2022-11-29T15:45:24.353Z,22.20
2022-11-29T15:47:54.720Z,18.43
2022-11-29T15:50:27.421Z,20.80
2022-11-29T15:52:59.970Z,20.33
2022-11-29T15:55:29.124Z,23.83
2022-11-29T15:57:58.793Z,22.23
2022-11-29T16:00:31.473Z,23.70
2022-11-29T16:03:02.193Z,23.30
2022-11-29T16:05:33.221Z,29.33
2022-11-29T16:08:02.979Z,26.50
2022-11-29T16:10:35.396Z,23.57
2022-11-29T16:13:06.247Z,28.63
2022-11-29T16:15:35.488Z,23.13
2022-11-29T16:18:06.737Z,24.60
2022-11-29T16:20:35.375Z,24.93
2022-11-29T16:23:05.222Z,24.47
2022-11-29T16:25:37.800Z,29.90
2022-11-29T16:28:07.290Z,26.93
2022-11-29T16:30:35.905Z,26.23
2022-11-29T16:33:05.764Z,20.57
2022-11-29T16:35:37.448Z,20.97
2022-11-29T16:38:07.433Z,22.27
2022-11-29T16:40:36.193Z,24.80
2022-11-29T16:43:10.144Z,29.60
2022-11-29T16:45:41.465Z,28.53
2022-11-29T16:48:29.860Z,27.50
2022-11-29T16:51:18.208Z,28.73
2022-11-29T16:53:49.787Z,32.30
2022-11-29T16:56:19.491Z,31.80
2022-11-29T16:59:16.954Z,31.67
2022-11-29T17:01:37.824Z,30.47
2022-11-29T17:04:08.790Z,35.67
2022-11-29T17:06:39.580Z,33.50
2022-11-29T17:09:08.101Z,31.03
2022-11-29T17:11:36.822Z,32.63
2022-11-29T17:14:05.372Z,35.13
2022-11-29T17:16:33.780Z,29.83
2022-11-29T17:19:02.235Z,35.80
2022-11-29T17:21:32.453Z,39.73
2022-11-29T17:24:01.019Z,31.83
2022-11-29T17:26:29.463Z,38.80
2022-11-29T17:28:57.958Z,36.87
2022-11-29T17:31:26.432Z,44.27
2022-11-29T17:33:54.955Z,35.57
2022-11-29T17:36:23.481Z,39.27
2022-11-29T17:38:53.311Z,37.47
2022-11-29T17:41:24.120Z,35.93
2022-11-29T17:43:52.985Z,36.77
2022-11-29T17:46:23.004Z,44.27
2022-11-29T17:48:52.240Z,41.07
2022-11-29T17:51:50.505Z,39.93
2022-11-29T17:54:11.711Z,45.57
2022-11-29T17:56:40.200Z,42.90
2022-11-29T17:59:08.744Z,42.60
2022-11-29T18:01:37.664Z,34.03
2022-11-29T18:04:08.292Z,30.40
2022-11-29T18:06:37.749Z,34.70
2022-11-29T18:09:06.719Z,33.47
2022-11-29T18:11:46.348Z,39.10
2022-11-29T18:14:17.685Z,29.33
2022-11-29T18:16:46.533Z,30.10
2022-11-29T18:19:16.149Z,41.20
2022-11-29T18:21:44.832Z,37.80
2022-11-29T18:24:13.833Z,41.07
2022-11-29T18:26:44.051Z,37.10
2022-11-29T18:29:12.702Z,41.90
2022-11-29T18:31:42.098Z,41.47
2022-11-29T18:34:11.679Z,33.10
2022-11-29T18:36:43.009Z,35.07
2022-11-29T18:39:13.912Z,46.83
2022-11-29T18:41:44.402Z,41.53
2022-11-29T18:44:13.884Z,47.23
2022-11-29T18:46:43.619Z,47.67
2022-11-29T18:49:12.804Z,49.57
2022-11-29T18:51:42.939Z,44.37
2022-11-29T18:54:11.597Z,43.27
2022-11-29T18:56:40.611Z,58.23
2022-11-29T18:59:11.133Z,55.20
2022-11-29T19:01:42.675Z,70.53
2022-11-29T19:04:12.395Z,66.83
2022-11-29T19:06:40.928Z,68.50
2022-11-29T19:09:11.189Z,73.13
2022-11-29T19:11:39.720Z,69.77
2022-11-29T19:14:12.659Z,75.33
2022-11-29T19:16:42.411Z,80.13
2022-11-29T19:19:10.890Z,58.87
2022-11-29T19:21:40.355Z,62.27
2022-11-29T19:24:15.148Z,69.23
2022-11-29T19:26:45.403Z,59.83
2022-11-29T19:29:15.811Z,62.77
2022-11-29T19:31:44.281Z,70.77
2022-11-29T19:34:13.075Z,67.03
2022-11-29T19:36:43.389Z,68.53
2022-11-29T19:39:14.064Z,70.53
2022-11-29T19:41:43.691Z,61.93
2022-11-29T19:44:12.428Z,70.70
2022-11-29T19:46:43.323Z,60.20
2022-11-29T19:49:12.359Z,57.50
2022-11-29T19:51:40.774Z,64.03
2022-11-29T19:54:10.488Z,62.27
2022-11-29T19:56:39.369Z,70.90
2022-11-29T19:59:08.742Z,71.60
2022-11-29T20:01:41.321Z,69.33
2022-11-29T20:04:12.388Z,67.00
2022-11-29T20:06:41.433Z,70.07
2022-11-29T20:09:09.953Z,81.57
2022-11-29T20:11:38.430Z,85.13
2022-11-29T20:14:08.075Z,66.87
2022-11-29T20:16:37.986Z,80.03
2022-11-29T20:19:09.908Z,79.47
2022-11-29T20:21:42.528Z,74.93
2022-11-29T20:24:11.487Z,77.10
2022-11-29T20:26:41.186Z,67.33
2022-11-29T20:29:10.449Z,84.03
2022-11-29T20:31:43.087Z,60.27
2022-11-29T20:34:15.156Z,68.63
2022-11-29T20:36:55.864Z,73.43
2022-11-29T20:39:30.582Z,75.30
2022-11-29T20:42:10.828Z,82.50
2022-11-29T20:44:40.128Z,79.63
2022-11-29T20:47:15.902Z,71.47
2022-11-29T20:49:44.835Z,87.37
2022-11-29T20:52:30.257Z,77.70
2022-11-29T20:54:58.896Z,72.53
2022-11-29T20:57:27.337Z,74.27
2022-11-29T20:59:55.770Z,68.10
2022-11-29T21:02:24.836Z,65.07
2022-11-29T21:04:53.414Z,60.83
2022-11-29T21:07:23.240Z,68.67
2022-11-29T21:09:55.433Z,70.47
2022-11-29T21:12:26.795Z,74.53
2022-11-29T21:14:55.668Z,69.40
2022-11-29T21:17:28.749Z,82.47
2022-11-29T21:20:00.567Z,62.63
2022-11-29T21:22:32.928Z,81.77
2022-11-29T21:25:06.405Z,84.97
2022-11-29T21:27:35.857Z,68.53
2022-11-29T21:30:06.565Z,82.87
2022-11-29T21:32:35.493Z,59.60
2022-11-29T21:35:04.010Z,84.40
2022-11-29T21:37:33.980Z,99.97
2022-11-29T21:40:02.751Z,92.73
2022-11-29T21:42:31.486Z,80.37
2022-11-29T21:44:59.941Z,84.70
2022-11-29T21:47:28.029Z,101.50
2022-11-29T21:49:56.449Z,86.20
2022-11-29T21:52:25.063Z,93.03
2022-11-29T21:54:54.622Z,93.37
2022-11-29T21:57:23.897Z,85.90
2022-11-29T21:59:52.001Z,96.57
2022-11-29T22:02:20.287Z,74.87
2022-11-29T22:04:48.901Z,96.67
2022-11-29T22:07:17.246Z,78.83
2022-11-29T22:09:45.383Z,95.67
2022-11-29T22:12:33.027Z,90.37
2022-11-29T22:15:02.604Z,93.70
2022-11-29T22:17:30.705Z,91.80
2022-11-29T22:20:01.906Z,88.80
2022-11-29T22:22:30.343Z,81.63
2022-11-29T22:24:59.056Z,88.70
2022-11-29T22:27:28.531Z,93.93
2022-11-29T22:29:56.701Z,85.90
2022-11-29T22:32:29.471Z,87.10
2022-11-29T22:34:57.948Z,87.17
2022-11-29T22:37:26.115Z,91.37
2022-11-29T22:39:54.693Z,88.13
2022-11-29T22:42:22.917Z,89.27
2022-11-29T22:44:52.371Z,90.37
2022-11-29T22:47:21.478Z,89.30
2022-11-29T22:49:51.557Z,82.93
2022-11-29T22:52:19.740Z,92.73
2022-11-29T22:54:48.172Z,97.30
2022-11-29T22:57:16.901Z,76.63
2022-11-29T22:59:44.991Z,77.57
2022-11-29T23:02:14.564Z,90.40
2022-11-29T23:04:42.868Z,89.20
2022-11-29T23:07:11.361Z,69.37
2022-11-29T23:09:39.952Z,85.83
2022-11-29T23:12:08.485Z,75.97
2022-11-29T23:14:36.887Z,90.87
2022-11-29T23:17:05.385Z,78.97
2022-11-29T23:19:35.325Z,83.57
2022-11-29T23:22:03.869Z,81.77
2022-11-29T23:24:32.274Z,74.90
2022-11-29T23:27:00.694Z,74.70
2022-11-29T23:29:29.256Z,83.50
2022-11-29T23:31:57.991Z,66.53
2022-11-29T23:34:26.480Z,71.40
2022-11-29T23:36:57.403Z,68.17
2022-11-29T23:39:25.518Z,64.40
2022-11-29T23:41:54.249Z,81.30
2022-11-29T23:44:22.377Z,74.07
2022-11-29T23:46:50.553Z,70.80
2022-11-29T23:49:18.972Z,74.60
2022-11-29T23:51:47.308Z,74.90
2022-11-29T23:54:16.814Z,67.40
2022-11-29T23:56:47.916Z,58.50
2022-11-29T23:59:16.079Z,75.57
